sensor_id;sensor_type;location;lat;lon;timestamp;P1;durP1;ratioP1;P2;durP2;ratioP2
58597;SDS011;60319;46.908;16.848;2022-09-23T00:02:36;0.88;;;0.88;;
58597;SDS011;60319;46.908;16.848;2022-09-23T00:07:37;0.55;;;0.55;;
58597;SDS011;60319;46.908;16.848;2022-09-23T00:12:37;0.35;;;0.30;;
58597;SDS011;60319;46.908;16.848;2022-09-23T00:17:38;0.40;;;0.40;;
58597;SDS011;60319;46.908;16.848;2022-09-23T00:22:39;0.52;;;0.52;;
58597;SDS011;60319;46.908;16.848;2022-09-23T00:27:40;1.42;;;0.60;;
58597;SDS011;60319;46.908;16.848;2022-09-23T00:32:41;0.30;;;0.30;;
58597;SDS011;60319;46.908;16.848;2022-09-23T00:37:41;0.40;;;0.40;;
58597;SDS011;60319;46.908;16.848;2022-09-23T00:42:45;0.20;;;0.20;;
58597;SDS011;60319;46.908;16.848;2022-09-23T00:47:50;0.73;;;0.73;;
58597;SDS011;60319;46.908;16.848;2022-09-23T00:52:54;0.45;;;0.45;;
58597;SDS011;60319;46.908;16.848;2022-09-23T00:57:57;0.35;;;0.30;;
58597;SDS011;60319;46.908;16.848;2022-09-23T01:03:00;0.30;;;0.30;;
58597;SDS011;60319;46.908;16.848;2022-09-23T01:08:04;0.22;;;0.22;;
58597;SDS011;60319;46.908;16.848;2022-09-23T01:13:21;0.40;;;0.40;;
58597;SDS011;60319;46.908;16.848;2022-09-23T01:39:37;0.63;;;0.63;;
58597;SDS011;60319;46.908;16.848;2022-09-23T01:44:54;0.40;;;0.40;;
58597;SDS011;60319;46.908;16.848;2022-09-23T01:50:04;0.50;;;0.50;;
58597;SDS011;60319;46.908;16.848;2022-09-23T01:55:35;0.35;;;0.35;;
58597;SDS011;60319;46.908;16.848;2022-09-23T02:00:42;0.30;;;0.30;;
58597;SDS011;60319;46.908;16.848;2022-09-23T02:06:27;0.75;;;0.70;;
58597;SDS011;60319;46.908;16.848;2022-09-23T02:11:22;0.80;;;0.80;;
58597;SDS011;60319;46.908;16.848;2022-09-23T02:16:24;0.88;;;0.88;;
58597;SDS011;60319;46.908;16.848;2022-09-23T02:21:39;0.60;;;0.60;;
58597;SDS011;60319;46.908;16.848;2022-09-23T02:26:54;0.20;;;0.20;;
58597;SDS011;60319;46.908;16.848;2022-09-23T02:37:24;0.40;;;0.38;;
58597;SDS011;60319;46.908;16.848;2022-09-23T02:47:42;0.30;;;0.30;;
58597;SDS011;60319;46.908;16.848;2022-09-23T02:52:46;0.45;;;0.45;;
58597;SDS011;60319;46.908;16.848;2022-09-23T02:57:47;0.70;;;0.70;;
58597;SDS011;60319;46.908;16.848;2022-09-23T03:03:04;0.30;;;0.30;;
58597;SDS011;60319;46.908;16.848;2022-09-23T03:08:35;0.82;;;0.82;;
58597;SDS011;60319;46.908;16.848;2022-09-23T03:13:46;0.20;;;0.20;;
58597;SDS011;60319;46.908;16.848;2022-09-23T03:24:16;0.75;;;0.75;;
58597;SDS011;60319;46.908;16.848;2022-09-23T03:29:20;0.30;;;0.30;;
58597;SDS011;60319;46.908;16.848;2022-09-23T03:34:23;1.15;;;1.10;;
58597;SDS011;60319;46.908;16.848;2022-09-23T03:39:40;0.88;;;0.50;;
58597;SDS011;60319;46.908;16.848;2022-09-23T03:44:43;0.32;;;0.32;;
58597;SDS011;60319;46.908;16.848;2022-09-23T03:49:46;0.38;;;0.38;;
58597;SDS011;60319;46.908;16.848;2022-09-23T03:54:48;0.45;;;0.45;;
58597;SDS011;60319;46.908;16.848;2022-09-23T03:59:51;1.58;;;0.35;;
58597;SDS011;60319;46.908;16.848;2022-09-23T04:04:51;0.30;;;0.30;;
58597;SDS011;60319;46.908;16.848;2022-09-23T04:09:52;0.40;;;0.40;;
58597;SDS011;60319;46.908;16.848;2022-09-23T04:14:52;0.75;;;0.52;;
58597;SDS011;60319;46.908;16.848;2022-09-23T04:19:53;0.30;;;0.25;;
58597;SDS011;60319;46.908;16.848;2022-09-23T04:24:53;0.98;;;0.73;;
58597;SDS011;60319;46.908;16.848;2022-09-23T04:29:54;1.40;;;0.28;;
58597;SDS011;60319;46.908;16.848;2022-09-23T04:34:54;0.88;;;0.75;;
58597;SDS011;60319;46.908;16.848;2022-09-23T04:39:55;0.52;;;0.52;;
58597;SDS011;60319;46.908;16.848;2022-09-23T04:44:55;0.25;;;0.25;;
58597;SDS011;60319;46.908;16.848;2022-09-23T04:49:56;0.43;;;0.43;;
58597;SDS011;60319;46.908;16.848;2022-09-23T04:54:57;0.73;;;0.68;;
58597;SDS011;60319;46.908;16.848;2022-09-23T04:59:57;0.55;;;0.55;;
58597;SDS011;60319;46.908;16.848;2022-09-23T05:04:58;0.30;;;0.30;;
58597;SDS011;60319;46.908;16.848;2022-09-23T05:09:59;0.60;;;0.60;;
58597;SDS011;60319;46.908;16.848;2022-09-23T05:15:00;0.45;;;0.45;;
58597;SDS011;60319;46.908;16.848;2022-09-23T05:20:01;0.40;;;0.40;;
58597;SDS011;60319;46.908;16.848;2022-09-23T05:25:02;0.20;;;0.20;;
58597;SDS011;60319;46.908;16.848;2022-09-23T05:30:03;0.47;;;0.40;;
58597;SDS011;60319;46.908;16.848;2022-09-23T05:35:04;0.50;;;0.50;;
58597;SDS011;60319;46.908;16.848;2022-09-23T05:40:05;0.32;;;0.32;;
58597;SDS011;60319;46.908;16.848;2022-09-23T05:45:05;0.70;;;0.57;;
58597;SDS011;60319;46.908;16.848;2022-09-23T05:50:06;0.32;;;0.32;;
58597;SDS011;60319;46.908;16.848;2022-09-23T05:55:07;0.40;;;0.40;;
58597;SDS011;60319;46.908;16.848;2022-09-23T06:00:08;0.30;;;0.30;;
58597;SDS011;60319;46.908;16.848;2022-09-23T06:05:09;0.25;;;0.25;;
58597;SDS011;60319;46.908;16.848;2022-09-23T06:10:11;0.30;;;0.30;;
58597;SDS011;60319;46.908;16.848;2022-09-23T06:15:11;0.63;;;0.40;;
58597;SDS011;60319;46.908;16.848;2022-09-23T06:20:12;0.30;;;0.30;;
58597;SDS011;60319;46.908;16.848;2022-09-23T06:25:12;0.40;;;0.40;;
58597;SDS011;60319;46.908;16.848;2022-09-23T06:30:13;0.77;;;0.52;;
58597;SDS011;60319;46.908;16.848;2022-09-23T06:35:13;0.43;;;0.40;;
58597;SDS011;60319;46.908;16.848;2022-09-23T06:40:17;1.50;;;0.52;;
58597;SDS011;60319;46.908;16.848;2022-09-23T06:45:18;0.10;;;0.10;;
58597;SDS011;60319;46.908;16.848;2022-09-23T06:50:18;0.57;;;0.40;;
58597;SDS011;60319;46.908;16.848;2022-09-23T06:55:19;0.45;;;0.43;;
58597;SDS011;60319;46.908;16.848;2022-09-23T07:00:23;0.80;;;0.20;;
58597;SDS011;60319;46.908;16.848;2022-09-23T07:05:24;0.70;;;0.50;;
58597;SDS011;60319;46.908;16.848;2022-09-23T07:10:25;1.35;;;0.65;;
58597;SDS011;60319;46.908;16.848;2022-09-23T07:15:28;0.43;;;0.43;;
58597;SDS011;60319;46.908;16.848;2022-09-23T07:20:28;0.50;;;0.43;;
58597;SDS011;60319;46.908;16.848;2022-09-23T07:25:29;0.75;;;0.60;;
58597;SDS011;60319;46.908;16.848;2022-09-23T07:30:36;0.65;;;0.40;;
58597;SDS011;60319;46.908;16.848;2022-09-23T07:35:38;0.40;;;0.20;;
58597;SDS011;60319;46.908;16.848;2022-09-23T07:40:40;0.20;;;0.20;;
58597;SDS011;60319;46.908;16.848;2022-09-23T07:45:40;0.80;;;0.80;;
58597;SDS011;60319;46.908;16.848;2022-09-23T07:50:42;0.17;;;0.17;;
58597;SDS011;60319;46.908;16.848;2022-09-23T07:55:45;0.80;;;0.50;;
58597;SDS011;60319;46.908;16.848;2022-09-23T08:00:52;0.40;;;0.40;;
58597;SDS011;60319;46.908;16.848;2022-09-23T08:05:53;1.42;;;0.65;;
58597;SDS011;60319;46.908;16.848;2022-09-23T08:10:59;1.40;;;0.80;;
58597;SDS011;60319;46.908;16.848;2022-09-23T08:16:01;0.43;;;0.43;;
58597;SDS011;60319;46.908;16.848;2022-09-23T08:21:02;0.65;;;0.65;;
58597;SDS011;60319;46.908;16.848;2022-09-23T08:26:04;0.20;;;0.20;;
58597;SDS011;60319;46.908;16.848;2022-09-23T08:31:05;0.40;;;0.40;;
58597;SDS011;60319;46.908;16.848;2022-09-23T08:36:07;3.25;;;0.80;;
58597;SDS011;60319;46.908;16.848;2022-09-23T08:41:28;0.35;;;0.35;;
58597;SDS011;60319;46.908;16.848;2022-09-23T08:46:36;0.35;;;0.35;;
58597;SDS011;60319;46.908;16.848;2022-09-23T08:51:44;0.40;;;0.40;;
58597;SDS011;60319;46.908;16.848;2022-09-23T08:56:47;0.75;;;0.75;;
58597;SDS011;60319;46.908;16.848;2022-09-23T09:01:51;0.28;;;0.28;;
58597;SDS011;60319;46.908;16.848;2022-09-23T09:12:19;0.30;;;0.30;;
58597;SDS011;60319;46.908;16.848;2022-09-23T09:27:53;0.35;;;0.28;;
58597;SDS011;60319;46.908;16.848;2022-09-23T09:33:01;0.75;;;0.65;;
58597;SDS011;60319;46.908;16.848;2022-09-23T09:38:05;0.30;;;0.30;;
58597;SDS011;60319;46.908;16.848;2022-09-23T09:43:06;0.38;;;0.38;;
58597;SDS011;60319;46.908;16.848;2022-09-23T09:48:12;0.13;;;0.13;;
58597;SDS011;60319;46.908;16.848;2022-09-23T09:53:21;0.30;;;0.30;;
58597;SDS011;60319;46.908;16.848;2022-09-23T09:58:38;0.30;;;0.30;;
58597;SDS011;60319;46.908;16.848;2022-09-23T10:03:54;0.10;;;0.10;;
58597;SDS011;60319;46.908;16.848;2022-09-23T10:09:15;0.30;;;0.30;;
58597;SDS011;60319;46.908;16.848;2022-09-23T10:14:20;0.25;;;0.25;;
58597;SDS011;60319;46.908;16.848;2022-09-23T10:19:23;0.30;;;0.30;;
58597;SDS011;60319;46.908;16.848;2022-09-23T10:24:28;0.20;;;0.20;;
58597;SDS011;60319;46.908;16.848;2022-09-23T10:29:53;1.02;;;0.52;;
58597;SDS011;60319;46.908;16.848;2022-09-23T10:39:56;0.17;;;0.10;;
58597;SDS011;60319;46.908;16.848;2022-09-23T10:45:21;1.95;;;0.30;;
58597;SDS011;60319;46.908;16.848;2022-09-23T10:50:51;0.55;;;0.43;;
58597;SDS011;60319;46.908;16.848;2022-09-23T10:56:00;0.30;;;0.30;;
58597;SDS011;60319;46.908;16.848;2022-09-23T11:06:43;0.20;;;0.20;;
58597;SDS011;60319;46.908;16.848;2022-09-23T11:39:24;0.85;;;0.35;;
58597;SDS011;60319;46.908;16.848;2022-09-23T11:44:32;0.52;;;0.52;;
58597;SDS011;60319;46.908;16.848;2022-09-23T11:49:44;0.50;;;0.50;;
58597;SDS011;60319;46.908;16.848;2022-09-23T11:54:59;0.20;;;0.20;;
58597;SDS011;60319;46.908;16.848;2022-09-23T12:00:24;0.43;;;0.43;;
58597;SDS011;60319;46.908;16.848;2022-09-23T12:05:33;0.35;;;0.20;;
58597;SDS011;60319;46.908;16.848;2022-09-23T12:26:32;0.45;;;0.30;;
58597;SDS011;60319;46.908;16.848;2022-09-23T12:31:35;0.50;;;0.50;;
58597;SDS011;60319;46.908;16.848;2022-09-23T12:36:37;6.72;;;0.50;;
58597;SDS011;60319;46.908;16.848;2022-09-23T12:41:39;3.28;;;0.77;;
58597;SDS011;60319;46.908;16.848;2022-09-23T12:46:43;0.20;;;0.20;;
58597;SDS011;60319;46.908;16.848;2022-09-23T12:52:10;0.40;;;0.40;;
58597;SDS011;60319;46.908;16.848;2022-09-23T12:57:11;0.52;;;0.52;;
58597;SDS011;60319;46.908;16.848;2022-09-23T13:02:34;0.25;;;0.25;;
58597;SDS011;60319;46.908;16.848;2022-09-23T13:07:39;0.30;;;0.20;;
58597;SDS011;60319;46.908;16.848;2022-09-23T13:12:44;0.20;;;0.20;;
58597;SDS011;60319;46.908;16.848;2022-09-23T13:17:46;0.68;;;0.68;;
58597;SDS011;60319;46.908;16.848;2022-09-23T13:27:53;0.38;;;0.38;;
58597;SDS011;60319;46.908;16.848;2022-09-23T13:33:04;0.30;;;0.30;;
58597;SDS011;60319;46.908;16.848;2022-09-23T13:38:20;0.70;;;0.60;;
58597;SDS011;60319;46.908;16.848;2022-09-23T13:43:35;1.08;;;0.32;;
58597;SDS011;60319;46.908;16.848;2022-09-23T13:48:39;0.73;;;0.73;;
58597;SDS011;60319;46.908;16.848;2022-09-23T13:53:43;0.20;;;0.17;;
58597;SDS011;60319;46.908;16.848;2022-09-23T13:58:52;0.22;;;0.22;;
58597;SDS011;60319;46.908;16.848;2022-09-23T14:03:54;0.22;;;0.22;;
58597;SDS011;60319;46.908;16.848;2022-09-23T14:08:55;0.50;;;0.50;;
58597;SDS011;60319;46.908;16.848;2022-09-23T14:13:59;0.63;;;0.30;;
58597;SDS011;60319;46.908;16.848;2022-09-23T14:19:07;0.40;;;0.40;;
58597;SDS011;60319;46.908;16.848;2022-09-23T14:24:17;0.38;;;0.30;;
58597;SDS011;60319;46.908;16.848;2022-09-23T14:29:21;0.30;;;0.30;;
58597;SDS011;60319;46.908;16.848;2022-09-23T14:34:45;0.20;;;0.20;;
58597;SDS011;60319;46.908;16.848;2022-09-23T14:40:02;0.52;;;0.22;;
58597;SDS011;60319;46.908;16.848;2022-09-23T14:45:05;1.38;;;0.75;;
58597;SDS011;60319;46.908;16.848;2022-09-23T14:50:20;0.40;;;0.40;;
58597;SDS011;60319;46.908;16.848;2022-09-23T14:55:35;0.20;;;0.20;;
58597;SDS011;60319;46.908;16.848;2022-09-23T15:00:36;0.30;;;0.30;;
58597;SDS011;60319;46.908;16.848;2022-09-23T15:05:44;0.60;;;0.50;;
58597;SDS011;60319;46.908;16.848;2022-09-23T15:10:46;0.30;;;0.30;;
58597;SDS011;60319;46.908;16.848;2022-09-23T15:15:50;0.40;;;0.30;;
58597;SDS011;60319;46.908;16.848;2022-09-23T15:20:53;0.45;;;0.45;;
58597;SDS011;60319;46.908;16.848;2022-09-23T15:25:56;0.20;;;0.20;;
58597;SDS011;60319;46.908;16.848;2022-09-23T15:30:56;1.60;;;0.43;;
58597;SDS011;60319;46.908;16.848;2022-09-23T15:35:57;0.30;;;0.30;;
58597;SDS011;60319;46.908;16.848;2022-09-23T15:40:58;0.20;;;0.20;;
58597;SDS011;60319;46.908;16.848;2022-09-23T15:46:00;0.85;;;0.32;;
58597;SDS011;60319;46.908;16.848;2022-09-23T15:51:06;0.17;;;0.17;;
58597;SDS011;60319;46.908;16.848;2022-09-23T15:56:08;0.43;;;0.43;;
58597;SDS011;60319;46.908;16.848;2022-09-23T16:01:30;0.57;;;0.47;;
58597;SDS011;60319;46.908;16.848;2022-09-23T16:06:32;0.20;;;0.20;;
58597;SDS011;60319;46.908;16.848;2022-09-23T16:11:34;0.20;;;0.20;;
58597;SDS011;60319;46.908;16.848;2022-09-23T16:16:36;0.47;;;0.47;;
58597;SDS011;60319;46.908;16.848;2022-09-23T16:21:36;0.22;;;0.22;;
58597;SDS011;60319;46.908;16.848;2022-09-23T16:26:37;0.60;;;0.50;;
58597;SDS011;60319;46.908;16.848;2022-09-23T16:31:39;0.20;;;0.20;;
58597;SDS011;60319;46.908;16.848;2022-09-23T16:36:40;0.20;;;0.20;;
58597;SDS011;60319;46.908;16.848;2022-09-23T16:41:42;0.55;;;0.55;;
58597;SDS011;60319;46.908;16.848;2022-09-23T16:46:42;2.25;;;0.80;;
58597;SDS011;60319;46.908;16.848;2022-09-23T16:51:43;0.32;;;0.32;;
58597;SDS011;60319;46.908;16.848;2022-09-23T16:56:46;1.98;;;0.50;;
58597;SDS011;60319;46.908;16.848;2022-09-23T17:01:47;0.32;;;0.32;;
58597;SDS011;60319;46.908;16.848;2022-09-23T17:07:06;0.80;;;0.45;;
58597;SDS011;60319;46.908;16.848;2022-09-23T17:12:08;0.98;;;0.85;;
58597;SDS011;60319;46.908;16.848;2022-09-23T17:17:14;0.20;;;0.20;;
58597;SDS011;60319;46.908;16.848;2022-09-23T17:22:15;3.53;;;0.40;;
58597;SDS011;60319;46.908;16.848;2022-09-23T17:27:15;2.50;;;0.85;;
58597;SDS011;60319;46.908;16.848;2022-09-23T17:32:16;0.60;;;0.60;;
58597;SDS011;60319;46.908;16.848;2022-09-23T17:37:17;0.30;;;0.30;;
58597;SDS011;60319;46.908;16.848;2022-09-23T17:42:17;0.30;;;0.30;;
58597;SDS011;60319;46.908;16.848;2022-09-23T17:47:18;0.85;;;0.77;;
58597;SDS011;60319;46.908;16.848;2022-09-23T17:52:18;1.05;;;1.02;;
58597;SDS011;60319;46.908;16.848;2022-09-23T17:57:19;1.13;;;0.75;;
58597;SDS011;60319;46.908;16.848;2022-09-23T18:02:20;1.83;;;0.93;;
58597;SDS011;60319;46.908;16.848;2022-09-23T18:07:21;2.92;;;1.75;;
58597;SDS011;60319;46.908;16.848;2022-09-23T18:12:22;1.27;;;0.73;;
58597;SDS011;60319;46.908;16.848;2022-09-23T18:17:22;0.70;;;0.70;;
58597;SDS011;60319;46.908;16.848;2022-09-23T18:22:23;1.15;;;1.10;;
58597;SDS011;60319;46.908;16.848;2022-09-23T18:27:23;1.10;;;1.10;;
58597;SDS011;60319;46.908;16.848;2022-09-23T18:32:24;1.95;;;1.02;;
58597;SDS011;60319;46.908;16.848;2022-09-23T18:37:27;2.15;;;1.98;;
58597;SDS011;60319;46.908;16.848;2022-09-23T18:42:28;3.58;;;1.65;;
58597;SDS011;60319;46.908;16.848;2022-09-23T18:47:29;9.50;;;2.03;;
58597;SDS011;60319;46.908;16.848;2022-09-23T18:52:48;6.45;;;1.30;;
58597;SDS011;60319;46.908;16.848;2022-09-23T18:57:48;2.13;;;1.75;;
58597;SDS011;60319;46.908;16.848;2022-09-23T19:02:50;4.45;;;2.60;;
58597;SDS011;60319;46.908;16.848;2022-09-23T19:07:51;1.95;;;1.85;;
58597;SDS011;60319;46.908;16.848;2022-09-23T19:12:52;2.33;;;2.13;;
58597;SDS011;60319;46.908;16.848;2022-09-23T19:17:52;4.38;;;3.25;;
58597;SDS011;60319;46.908;16.848;2022-09-23T19:22:53;4.95;;;1.65;;
58597;SDS011;60319;46.908;16.848;2022-09-23T19:27:54;12.45;;;3.00;;
58597;SDS011;60319;46.908;16.848;2022-09-23T19:32:55;2.60;;;1.90;;
58597;SDS011;60319;46.908;16.848;2022-09-23T19:37:55;1.90;;;1.55;;
58597;SDS011;60319;46.908;16.848;2022-09-23T19:42:56;6.55;;;2.28;;
58597;SDS011;60319;46.908;16.848;2022-09-23T19:47:58;1.92;;;1.67;;
58597;SDS011;60319;46.908;16.848;2022-09-23T19:53:01;1.88;;;1.52;;
58597;SDS011;60319;46.908;16.848;2022-09-23T19:58:05;2.13;;;1.65;;
58597;SDS011;60319;46.908;16.848;2022-09-23T20:03:06;1.50;;;1.13;;
58597;SDS011;60319;46.908;16.848;2022-09-23T20:08:07;1.55;;;1.40;;
58597;SDS011;60319;46.908;16.848;2022-09-23T20:13:08;3.30;;;1.40;;
58597;SDS011;60319;46.908;16.848;2022-09-23T20:18:08;1.15;;;1.05;;
58597;SDS011;60319;46.908;16.848;2022-09-23T20:23:09;3.15;;;2.35;;
58597;SDS011;60319;46.908;16.848;2022-09-23T20:28:09;3.47;;;2.25;;
58597;SDS011;60319;46.908;16.848;2022-09-23T20:33:10;1.75;;;1.65;;
58597;SDS011;60319;46.908;16.848;2022-09-23T20:38:14;2.22;;;2.05;;
58597;SDS011;60319;46.908;16.848;2022-09-23T20:43:15;2.38;;;1.55;;
58597;SDS011;60319;46.908;16.848;2022-09-23T20:48:17;2.03;;;1.90;;
58597;SDS011;60319;46.908;16.848;2022-09-23T20:53:21;2.85;;;2.22;;
58597;SDS011;60319;46.908;16.848;2022-09-23T20:58:26;0.82;;;0.82;;
58597;SDS011;60319;46.908;16.848;2022-09-23T21:03:29;0.68;;;0.68;;
58597;SDS011;60319;46.908;16.848;2022-09-23T21:08:34;2.22;;;2.03;;
58597;SDS011;60319;46.908;16.848;2022-09-23T21:13:36;5.25;;;1.40;;
58597;SDS011;60319;46.908;16.848;2022-09-23T21:18:37;1.27;;;0.90;;
58597;SDS011;60319;46.908;16.848;2022-09-23T21:23:38;2.08;;;1.88;;
58597;SDS011;60319;46.908;16.848;2022-09-23T21:28:40;1.63;;;1.52;;
58597;SDS011;60319;46.908;16.848;2022-09-23T21:33:42;1.10;;;0.85;;
58597;SDS011;60319;46.908;16.848;2022-09-23T21:38:43;1.20;;;1.20;;
58597;SDS011;60319;46.908;16.848;2022-09-23T21:43:44;1.52;;;1.05;;
58597;SDS011;60319;46.908;16.848;2022-09-23T21:48:45;5.15;;;1.60;;
58597;SDS011;60319;46.908;16.848;2022-09-23T21:53:49;1.08;;;0.88;;
58597;SDS011;60319;46.908;16.848;2022-09-23T21:58:54;1.17;;;1.08;;
58597;SDS011;60319;46.908;16.848;2022-09-23T22:03:57;1.50;;;1.40;;
58597;SDS011;60319;46.908;16.848;2022-09-23T22:09:05;1.63;;;1.52;;
58597;SDS011;60319;46.908;16.848;2022-09-23T22:14:11;2.57;;;1.33;;
58597;SDS011;60319;46.908;16.848;2022-09-23T22:19:13;1.00;;;0.85;;
58597;SDS011;60319;46.908;16.848;2022-09-23T22:24:14;1.00;;;0.90;;
58597;SDS011;60319;46.908;16.848;2022-09-23T22:29:15;0.75;;;0.75;;
58597;SDS011;60319;46.908;16.848;2022-09-23T22:34:34;0.82;;;0.82;;
58597;SDS011;60319;46.908;16.848;2022-09-23T22:39:35;1.23;;;1.13;;
58597;SDS011;60319;46.908;16.848;2022-09-23T22:44:35;2.45;;;1.48;;
58597;SDS011;60319;46.908;16.848;2022-09-23T22:49:36;1.20;;;1.10;;
58597;SDS011;60319;46.908;16.848;2022-09-23T22:54:36;1.80;;;1.00;;
58597;SDS011;60319;46.908;16.848;2022-09-23T22:59:37;0.68;;;0.50;;
58597;SDS011;60319;46.908;16.848;2022-09-23T23:04:38;1.15;;;1.05;;
58597;SDS011;60319;46.908;16.848;2022-09-23T23:09:38;3.85;;;1.40;;
58597;SDS011;60319;46.908;16.848;2022-09-23T23:14:39;2.10;;;1.45;;
58597;SDS011;60319;46.908;16.848;2022-09-23T23:19:42;1.25;;;0.47;;
58597;SDS011;60319;46.908;16.848;2022-09-23T23:24:42;2.40;;;1.42;;
58597;SDS011;60319;46.908;16.848;2022-09-23T23:29:43;1.05;;;0.98;;
58597;SDS011;60319;46.908;16.848;2022-09-23T23:34:43;1.13;;;0.88;;
58597;SDS011;60319;46.908;16.848;2022-09-23T23:39:44;0.82;;;0.82;;
58597;SDS011;60319;46.908;16.848;2022-09-23T23:44:46;0.60;;;0.52;;
58597;SDS011;60319;46.908;16.848;2022-09-23T23:49:50;0.68;;;0.68;;
58597;SDS011;60319;46.908;16.848;2022-09-23T23:54:50;1.75;;;1.65;;
58597;SDS011;60319;46.908;16.848;2022-09-23T23:59:51;3.92;;;1.00;;
